N1LTP Weather Reports


time (UTC)temp
C
wind
direction
speed
KPH
gust
KPH
rain 1hr
cm
rain 24hr
cm
rain mn
cm
humidity
%
barometer
mb
20220627200019 20 142 0.0 4.8 0.76 1.78 1.78 96 1012.1
20220627194529 20 142 0.0 6.4 0.76 1.57 1.57 95 1012.1
20220627193018 20 79 0.0 4.8 0.69 1.35 1.35 95 1012.4
20220627191515 20 44 0.0 3.2 0.58 1.17 1.17 95 1012.3
20220627190014 20 45 0.0 3.2 0.43 1.02 1.02 95 1012.2
20220627184512 20 129 0.0 4.8 0.25 0.79 0.79 95 1012.4
20220627183011 20 68 0.0 3.2 0.25 0.66 0.66 94 1012.3
20220627181509 20 85 0.0 3.2 0.33 0.58 0.58 94 1012.4
20220627180008 20 337 0.0 3.2 0.48 0.58 0.58 94 1012.3
20220627174506 21 334 0.0 4.8 0.48 0.51 0.51 93 1012.5
20220627173008 21 221 0.0 3.2 0.41 0.41 0.41 93 1012.5
20220627171503 21 153 0.0 6.4 0.25 0.25 0.25 92 1012.6
20220627170001 21 326 0.0 6.4 0.10 0.10 0.10 92 1012.7
20220627164501 21 333 0.0 4.8 0.00 0.00 0.00 90 1012.7
20220627163108 22 230 1.6 4.8 0.00 0.00 0.00 89 1012.8
20220627161558 22 114 0.0 8.0 0.00 0.00 0.00 88 1012.8
20220627160058 22 78 0.0 4.8 0.00 0.00 0.00 88 1012.9
20220627154556 22 128 1.6 8.0 0.00 0.00 0.00 87 1012.9
20220627153056 22 290 0.0 6.4 0.00 0.00 0.00 87 1012.9
20220627151558 22 62 0.0 4.8 0.00 0.00 0.00 87 1012.9
20220627150053 21 140 1.6 6.4 0.00 0.00 0.00 87 1012.7
20220627144552 22 234 1.6 12.9 0.00 0.00 0.00 86 1012.7
20220627143051 22 139 0.0 8.0 0.00 0.00 0.00 86 1012.7
20220627141555 22 137 1.6 8.0 0.00 0.00 0.00 86 1012.7
20220627140100 22 130 0.0 9.7 0.00 0.00 0.00 86 1012.8
20220627134548 22 71 1.6 6.4 0.00 0.00 0.00 85 1012.9
20220627133047 22 34 1.6 8.0 0.00 0.00 0.00 85 1012.9
20220627131551 22 102 0.0 4.8 0.00 0.00 0.00 85 1012.8
20220627130045 22 171 0.0 11.3 0.00 0.00 0.00 85 1012.9
20220627124544 22 131 1.6 11.3 0.00 0.00 0.00 84 1013.1
20220627123044 22 177 0.0 6.4 0.00 0.00 0.00 84 1013.1
20220627121542 22 221 0.0 4.8 0.00 0.00 0.00 83 1013.1
20220627120042 22 171 1.6 9.7 0.00 0.00 0.00 83 1013.0
20220627114548 22 298 1.6 12.9 0.00 0.00 0.00 83 1013.1
20220627113036 21 231 3.2 9.7 0.00 0.00 0.00 84 1013.2
20220627111532 21 355 1.6 6.4 0.00 0.00 0.00 87 1013.2
20220627110028 20 170 1.6 8.0 0.00 0.00 0.00 88 1013.2
20220627104524 20 309 0.0 6.4 0.00 0.00 0.00 89 1013.2
20220627103022 20 248 0.0 4.8 0.00 0.00 0.00 89 1013.2
20220627101519 19 92 0.0 4.8 0.00 0.00 0.00 90 1013.4
20220627100017 19 150 0.0 3.2 0.00 0.00 0.00 90 1013.5
20220627094515 19 119 0.0 6.4 0.00 0.00 0.00 90 1013.5
20220627093012 19 140 0.0 6.4 0.00 0.00 0.00 90 1013.6
20220627091512 18 140 1.6 4.8 0.00 0.00 0.00 90 1013.6
20220627090010 18 140 0.0 4.8 0.00 0.00 0.00 90 1013.7
20220627084508 18 137 0.0 4.8 0.00 0.00 0.00 90 1014.0
20220627083005 18 138 0.0 1.6 0.00 0.00 0.00 90 1014.0
20220627081505 18 137 0.0 4.8 0.00 0.00 0.00 90 1014.2
20220627080106 18 135 0.0 3.2 0.00 0.00 0.00 90 1014.3
20220627074602 18 135 0.0 3.2 0.00 0.00 0.00 90 1014.4
20220627073056 18 135 0.0 3.2 0.00 0.00 0.00 90 1014.5
20220627071555 18 135 0.0 3.2 0.00 0.00 0.00 90 1014.8
20220627070052 17 135 0.0 1.6 0.00 0.00 0.00 89 1015.0
20220627064551 17 135 0.0 1.6 0.00 0.00 0.00 88 1015.0
20220627063054 17 135 0.0 1.6 0.00 0.00 0.00 87 1015.1
20220627061549 17 135 0.0 3.2 0.00 0.00 0.00 87 1015.2
20220627060047 17 135 0.0 1.6 0.00 0.00 0.00 87 1015.4
20220627054545 17 135 0.0 0.0 0.00 0.00 0.00 87 1015.5
20220627053053 17 135 0.0 1.6 0.00 0.00 0.00 86 1015.4
20220627051556 17 135 0.0 1.6 0.00 0.00 0.00 86 1015.6
20220627050044 17 135 0.0 1.6 0.00 0.00 0.00 86 1015.8
20220627044539 17 135 0.0 1.6 0.00 0.00 0.00 85 1015.8
20220627043041 18 135 0.0 1.6 0.00 0.00 0.00 84 1015.8
20220627041535 18 135 0.0 0.0 0.00 0.00 0.00 84 1016.0
20220627040035 18 135 0.0 1.6 0.00 0.00 0.00 83 1016.1
20220627034545 18 135 0.0 1.6 0.00 0.00 0.00 83 1016.1
20220627033032 19 135 0.0 1.6 0.00 0.00 0.00 83 1016.1
20220627031535 19 135 0.0 1.6 0.00 0.00 0.00 83 1016.2
20220627030034 20 135 0.0 1.6 0.00 0.00 0.00 83 1016.4
20220627024530 20 135 0.0 1.6 0.00 0.00 0.00 82 1016.5
20220627023031 20 135 0.0 4.8 0.00 0.00 0.00 82 1016.5
20220627021529 20 135 0.0 1.6 0.00 0.00 0.00 82 1016.6
20220627020132 20 135 0.0 3.2 0.00 0.00 0.00 82 1016.5
20220627014532 21 136 0.0 1.6 0.00 0.00 0.00 82 1016.5
20220627013028 21 136 0.0 4.8 0.00 0.00 0.00 82 1016.5
20220627011528 21 69 0.0 4.8 0.00 0.00 0.00 81 1016.4
20220627010029 22 66 0.0 3.2 0.00 0.00 0.00 81 1016.3
20220627004527 22 77 0.0 3.2 0.00 0.00 0.00 80 1016.1
20220627003025 23 76 0.0 3.2 0.00 0.00 0.00 79 1015.9
20220627001525 23 355 0.0 3.2 0.00 0.00 0.00 78 1015.8
20220627000028 23 98 0.0 6.4 0.00 0.00 0.00 75 1015.7
20220626234525 24 9 0.0 4.8 0.00 0.00 0.00 73 1015.6
20220626233030 25 146 0.0 9.7 0.00 0.00 0.00 71 1015.5
20220626231523 25 26 0.0 8.0 0.00 0.00 0.00 68 1015.7
20220626230026 26 201 0.0 3.2 0.00 0.00 0.00 67 1015.7
20220626224522 26 129 0.0 8.0 0.00 0.00 0.00 65 1015.6
20220626223021 26 130 1.6 8.0 0.00 0.00 0.00 64 1015.6
20220626221532 27 137 0.0 8.0 0.00 0.00 0.00 63 1015.6
20220626220026 27 12 0.0 11.3 0.00 0.00 0.00 62 1015.7
20220626214517 27 155 1.6 11.3 0.00 0.00 0.00 60 1015.7
20220626213017 27 117 0.0 14.5 0.00 0.00 0.00 61 1015.9
20220626211516 28 110 1.6 9.7 0.00 0.00 0.00 59 1016.0
20220626210022 28 55 4.8 22.5 0.00 0.00 0.00 55 1016.1
20220626204515 29 140 0.0 8.0 0.00 0.00 0.00 57 1016.2
20220626203014 30 323 1.6 9.7 0.00 0.00 0.00 56 1016.1
20220626201513 30 89 3.2 9.7 0.00 0.00 0.00 54 1016.1